createdAt,value
2019-01-30T00:01:10.806Z,3.53
2019-01-30T00:03:40.295Z,3.30
2019-01-30T00:06:09.750Z,3.77
2019-01-30T00:08:39.267Z,3.53
2019-01-30T00:11:08.807Z,3.33
2019-01-30T00:13:38.408Z,3.20
2019-01-30T00:16:08.156Z,3.37
2019-01-30T00:18:37.617Z,3.10
2019-01-30T00:21:07.179Z,3.20
2019-01-30T00:23:36.653Z,3.27
2019-01-30T00:26:06.523Z,3.00
2019-01-30T00:28:35.976Z,3.40
2019-01-30T00:31:05.797Z,2.93
2019-01-30T00:33:35.270Z,3.40
2019-01-30T00:36:04.986Z,2.90
2019-01-30T00:38:34.530Z,3.10
2019-01-30T00:41:04.054Z,2.73
2019-01-30T00:43:33.564Z,2.93
2019-01-30T00:46:03.103Z,2.90
2019-01-30T00:48:32.565Z,2.93
2019-01-30T00:51:02.054Z,3.17
2019-01-30T00:53:31.549Z,3.10
2019-01-30T00:56:01.102Z,2.77
2019-01-30T00:58:30.677Z,2.90
2019-01-30T01:01:00.204Z,3.00
2019-01-30T01:03:29.737Z,2.97
2019-01-30T01:05:59.296Z,3.07
2019-01-30T01:08:29.106Z,2.70
2019-01-30T01:10:58.637Z,3.17
2019-01-30T01:13:28.128Z,2.47
2019-01-30T01:15:57.710Z,2.70
2019-01-30T01:18:27.205Z,2.80
2019-01-30T01:20:56.721Z,2.70
2019-01-30T01:23:26.344Z,3.07
2019-01-30T01:25:55.884Z,3.10
2019-01-30T01:28:25.369Z,3.00
2019-01-30T01:30:54.857Z,3.13
2019-01-30T01:33:25.950Z,3.20
2019-01-30T01:35:55.517Z,3.10
2019-01-30T01:38:25.035Z,2.90
2019-01-30T01:40:54.596Z,2.70
2019-01-30T01:43:24.062Z,3.03
2019-01-30T01:45:53.562Z,2.67
2019-01-30T01:48:23.058Z,2.90
2019-01-30T01:50:52.608Z,3.00
2019-01-30T01:53:22.141Z,2.97
2019-01-30T01:55:51.701Z,2.80
2019-01-30T01:58:21.178Z,2.90
2019-01-30T02:00:50.841Z,2.60
2019-01-30T02:03:20.314Z,2.50
2019-01-30T02:05:49.762Z,2.90
2019-01-30T02:08:19.334Z,2.87
2019-01-30T02:10:48.859Z,2.43
2019-01-30T02:13:18.359Z,2.83
2019-01-30T02:15:47.847Z,3.20
2019-01-30T02:18:17.333Z,2.47
2019-01-30T02:20:46.789Z,3.10
2019-01-30T02:23:16.267Z,2.67
2019-01-30T02:25:45.797Z,3.07
2019-01-30T02:28:15.283Z,3.03
2019-01-30T02:30:47.507Z,2.50
2019-01-30T02:33:16.025Z,2.80
2019-01-30T02:35:45.587Z,3.00
2019-01-30T02:38:15.072Z,3.10
2019-01-30T02:40:44.563Z,2.93
2019-01-30T02:43:14.054Z,2.87
2019-01-30T02:45:43.505Z,2.73
2019-01-30T02:48:13.010Z,3.10
2019-01-30T02:50:42.461Z,3.67
2019-01-30T02:53:11.961Z,2.90
2019-01-30T02:55:41.411Z,3.20
2019-01-30T02:58:10.935Z,3.53
2019-01-30T03:00:40.423Z,3.10
2019-01-30T03:03:09.879Z,2.77
2019-01-30T03:05:39.439Z,3.03
2019-01-30T03:08:08.999Z,2.60
2019-01-30T03:10:38.612Z,2.80
2019-01-30T03:13:08.068Z,3.20
2019-01-30T03:15:37.558Z,3.30
2019-01-30T03:18:07.080Z,2.63
2019-01-30T03:20:36.695Z,2.50
2019-01-30T03:23:06.318Z,3.30
2019-01-30T03:25:35.815Z,2.80
2019-01-30T03:28:05.437Z,3.30
2019-01-30T03:30:35.030Z,2.90
2019-01-30T03:33:04.650Z,2.67
2019-01-30T03:35:34.238Z,3.00
2019-01-30T03:38:03.649Z,2.90
2019-01-30T03:40:33.208Z,2.47
2019-01-30T03:43:02.663Z,2.43
2019-01-30T03:45:32.141Z,2.50
2019-01-30T03:48:01.616Z,2.40
2019-01-30T03:50:31.092Z,2.80
2019-01-30T03:53:00.557Z,2.63
2019-01-30T03:55:30.031Z,2.70
2019-01-30T03:57:59.568Z,3.37
2019-01-30T04:00:29.120Z,2.67
2019-01-30T04:02:58.575Z,2.80
2019-01-30T04:05:28.057Z,2.77
2019-01-30T04:07:57.515Z,2.70
2019-01-30T04:10:27.069Z,2.50
2019-01-30T04:12:56.575Z,2.80
2019-01-30T04:15:26.102Z,2.30
2019-01-30T04:17:55.649Z,3.23
2019-01-30T04:20:25.173Z,2.97
2019-01-30T04:22:54.663Z,2.60
2019-01-30T04:25:24.185Z,2.80
2019-01-30T04:27:53.660Z,2.80
2019-01-30T04:30:25.662Z,2.90
2019-01-30T04:32:55.203Z,2.70
2019-01-30T04:35:24.671Z,3.40
2019-01-30T04:37:54.149Z,2.70
2019-01-30T04:40:23.721Z,2.60
2019-01-30T04:42:53.214Z,2.90
2019-01-30T04:45:26.429Z,2.90
2019-01-30T04:47:55.920Z,2.83
2019-01-30T04:50:25.390Z,2.63
2019-01-30T04:52:54.841Z,3.00
2019-01-30T04:55:24.331Z,2.63
2019-01-30T04:57:53.956Z,2.53
2019-01-30T05:00:25.430Z,2.87
2019-01-30T05:02:55.084Z,2.40
2019-01-30T05:05:24.613Z,2.40
2019-01-30T05:07:54.264Z,2.70
2019-01-30T05:10:23.752Z,2.77
2019-01-30T05:12:53.306Z,2.57
2019-01-30T05:15:22.761Z,2.83
2019-01-30T05:17:52.253Z,2.90
2019-01-30T05:20:22.289Z,3.00
2019-01-30T05:22:51.874Z,2.90
2019-01-30T05:25:21.480Z,2.40
2019-01-30T05:27:50.943Z,2.50
2019-01-30T05:30:29.942Z,2.63
2019-01-30T05:32:59.492Z,3.30
2019-01-30T05:35:29.036Z,4.63
2019-01-30T05:37:58.587Z,3.90
2019-01-30T05:40:28.227Z,2.80
2019-01-30T05:42:57.792Z,2.93
2019-01-30T05:45:27.250Z,2.67
2019-01-30T05:47:56.710Z,2.50
2019-01-30T05:50:26.214Z,2.70
2019-01-30T05:52:55.767Z,2.37
2019-01-30T05:55:25.335Z,3.00
2019-01-30T05:57:54.812Z,2.73
2019-01-30T06:00:33.347Z,2.70
2019-01-30T06:03:02.902Z,2.40
2019-01-30T06:05:32.515Z,2.43
2019-01-30T06:08:01.977Z,2.77
2019-01-30T06:10:31.473Z,2.63
2019-01-30T06:13:00.994Z,2.80
2019-01-30T06:15:30.563Z,2.33
2019-01-30T06:18:00.034Z,2.90
2019-01-30T06:20:30.303Z,2.53
2019-01-30T06:23:01.857Z,2.80
2019-01-30T06:25:31.567Z,2.70
2019-01-30T06:28:01.046Z,2.60
2019-01-30T06:30:30.598Z,2.60
2019-01-30T06:33:00.222Z,2.43
2019-01-30T06:35:29.820Z,2.50
2019-01-30T06:37:59.313Z,2.47
2019-01-30T06:40:32.007Z,2.60
2019-01-30T06:43:02.879Z,2.93
2019-01-30T06:45:32.487Z,2.60
2019-01-30T06:48:02.020Z,2.80
2019-01-30T06:50:31.656Z,3.10
2019-01-30T06:53:01.126Z,2.90
2019-01-30T06:55:30.617Z,2.80
2019-01-30T06:58:00.074Z,2.97
2019-01-30T07:00:29.706Z,2.90
2019-01-30T07:02:59.398Z,2.90
2019-01-30T07:05:29.034Z,2.80
2019-01-30T07:07:58.618Z,3.00
2019-01-30T07:10:28.714Z,3.37
2019-01-30T07:12:58.283Z,3.10
2019-01-30T07:15:27.851Z,4.00
2019-01-30T07:17:57.392Z,3.63
2019-01-30T07:20:26.962Z,3.83
2019-01-30T07:22:56.599Z,3.47
2019-01-30T07:25:26.131Z,3.73
2019-01-30T07:27:55.625Z,3.10
2019-01-30T07:30:31.303Z,3.83
2019-01-30T07:33:00.883Z,3.50
2019-01-30T07:35:30.516Z,3.63
2019-01-30T07:37:59.983Z,3.60
2019-01-30T07:40:29.463Z,3.83
2019-01-30T07:42:59.016Z,3.67
2019-01-30T07:45:29.505Z,3.47
2019-01-30T07:47:59.126Z,3.37
2019-01-30T07:50:28.790Z,3.33
2019-01-30T07:52:58.970Z,3.63
2019-01-30T07:55:28.725Z,3.40
2019-01-30T07:57:58.338Z,3.53
2019-01-30T08:00:30.441Z,3.30
2019-01-30T08:03:00.000Z,3.53
2019-01-30T08:05:29.491Z,4.13
2019-01-30T08:07:59.082Z,3.97
2019-01-30T08:10:28.713Z,3.57
2019-01-30T08:12:58.392Z,3.90
2019-01-30T08:15:28.217Z,5.10
2019-01-30T08:17:57.684Z,6.00
2019-01-30T08:20:27.151Z,18.83
2019-01-30T08:22:56.924Z,16.23
2019-01-30T08:25:26.432Z,29.27
2019-01-30T08:27:56.276Z,17.60
2019-01-30T08:30:28.793Z,11.50
2019-01-30T08:33:04.585Z,6.57
2019-01-30T08:35:32.024Z,5.40
2019-01-30T08:38:01.545Z,5.57
2019-01-30T08:40:31.184Z,5.53
2019-01-30T08:43:00.781Z,5.10
2019-01-30T08:45:31.115Z,5.30
2019-01-30T08:48:00.635Z,4.83
2019-01-30T08:50:30.627Z,4.23
2019-01-30T08:53:00.337Z,4.00
2019-01-30T08:55:29.968Z,3.87
2019-01-30T08:57:59.605Z,4.07
2019-01-30T09:00:30.359Z,3.83
2019-01-30T09:02:59.916Z,3.70
2019-01-30T09:05:29.445Z,4.30
2019-01-30T09:07:58.957Z,3.87
2019-01-30T09:10:29.810Z,4.03
2019-01-30T09:12:59.660Z,4.37
2019-01-30T09:15:30.855Z,4.27
2019-01-30T09:18:00.470Z,4.00
2019-01-30T09:20:30.100Z,3.90
2019-01-30T09:22:59.554Z,4.20
2019-01-30T09:25:31.263Z,3.90
2019-01-30T09:28:02.455Z,3.90
2019-01-30T09:30:39.157Z,4.43
2019-01-30T09:33:10.449Z,4.07
2019-01-30T09:35:39.994Z,3.93
2019-01-30T09:38:09.767Z,4.07
2019-01-30T09:40:39.184Z,3.97
2019-01-30T09:43:08.748Z,4.37
2019-01-30T09:45:38.265Z,4.03
2019-01-30T09:48:08.240Z,4.20
2019-01-30T09:50:37.802Z,4.47
2019-01-30T09:53:08.122Z,3.97
2019-01-30T09:55:37.646Z,4.50
2019-01-30T09:58:07.224Z,3.77
2019-01-30T10:00:40.165Z,3.57
2019-01-30T10:03:09.657Z,3.80
2019-01-30T10:05:39.116Z,4.30
2019-01-30T10:08:08.851Z,4.60
2019-01-30T10:10:42.049Z,3.50
2019-01-30T10:13:11.992Z,4.40
2019-01-30T10:15:46.448Z,4.00
2019-01-30T10:18:16.250Z,3.90
2019-01-30T10:20:47.757Z,4.00
2019-01-30T10:23:17.349Z,3.60
2019-01-30T10:25:46.900Z,3.87
2019-01-30T10:28:17.214Z,3.40
2019-01-30T10:30:48.188Z,4.13
2019-01-30T10:33:17.756Z,4.50
2019-01-30T10:35:47.494Z,5.93
2019-01-30T10:38:17.100Z,6.33
2019-01-30T10:40:46.657Z,5.90
2019-01-30T10:43:16.567Z,4.73
2019-01-30T10:45:46.108Z,4.70
2019-01-30T10:48:15.570Z,7.07
2019-01-30T10:50:45.133Z,6.37
2019-01-30T10:53:14.728Z,4.63
2019-01-30T10:55:44.299Z,4.80
2019-01-30T10:58:16.185Z,4.47
2019-01-30T11:00:49.199Z,4.97
2019-01-30T11:03:19.217Z,4.90
2019-01-30T11:05:48.942Z,4.50
2019-01-30T11:08:18.491Z,4.63
2019-01-30T11:10:50.649Z,4.70
2019-01-30T11:13:19.257Z,4.30
2019-01-30T11:15:48.731Z,4.80
2019-01-30T11:18:18.439Z,4.70
2019-01-30T11:20:47.992Z,4.60
2019-01-30T11:23:17.489Z,5.77
2019-01-30T11:25:49.167Z,4.90
2019-01-30T11:28:18.726Z,4.70
2019-01-30T11:30:48.433Z,4.77
2019-01-30T11:33:18.082Z,4.80
2019-01-30T11:35:47.675Z,4.17
2019-01-30T11:38:17.185Z,5.33
2019-01-30T11:40:46.630Z,4.80
2019-01-30T11:43:16.240Z,5.60
2019-01-30T11:45:46.369Z,5.00
2019-01-30T11:48:15.910Z,5.30
2019-01-30T11:50:45.462Z,5.33
2019-01-30T11:53:15.191Z,5.23
2019-01-30T11:55:44.756Z,5.33
2019-01-30T11:58:14.503Z,6.20
2019-01-30T12:00:45.724Z,4.90
2019-01-30T12:03:15.288Z,4.37
2019-01-30T12:05:45.977Z,4.77
2019-01-30T12:08:15.679Z,4.50
2019-01-30T12:10:45.204Z,4.53
2019-01-30T12:13:14.683Z,4.93
2019-01-30T12:15:44.240Z,4.60
2019-01-30T12:18:13.805Z,4.47
2019-01-30T12:20:43.320Z,4.50
2019-01-30T12:23:12.988Z,4.80
2019-01-30T12:25:42.654Z,4.27
2019-01-30T12:28:12.220Z,4.83
2019-01-30T12:30:41.751Z,4.77
2019-01-30T12:33:11.405Z,4.57
2019-01-30T12:35:40.938Z,5.03
2019-01-30T12:38:10.627Z,4.00
2019-01-30T12:40:40.187Z,4.60
2019-01-30T12:43:09.784Z,5.50
2019-01-30T12:45:39.625Z,5.27
2019-01-30T12:48:10.773Z,5.13
2019-01-30T12:50:40.642Z,5.10
2019-01-30T12:53:10.168Z,4.27
2019-01-30T12:55:39.817Z,4.90
2019-01-30T12:58:09.400Z,5.20
2019-01-30T13:00:41.549Z,5.20
2019-01-30T13:03:11.080Z,4.87
2019-01-30T13:05:40.580Z,5.40
2019-01-30T13:08:10.210Z,5.70
2019-01-30T13:10:39.789Z,4.90
2019-01-30T13:13:09.318Z,4.80
2019-01-30T13:15:38.901Z,5.53
2019-01-30T13:18:17.943Z,4.77
2019-01-30T13:20:39.850Z,4.93
2019-01-30T13:23:09.519Z,4.97
2019-01-30T13:25:39.078Z,5.27
2019-01-30T13:28:08.805Z,4.83
2019-01-30T13:30:40.007Z,5.07
2019-01-30T13:33:10.126Z,5.43
2019-01-30T13:35:39.749Z,5.23
2019-01-30T13:38:09.284Z,4.93
2019-01-30T13:40:39.378Z,4.93
2019-01-30T13:43:09.012Z,5.80
2019-01-30T13:45:38.608Z,5.37
2019-01-30T13:48:11.425Z,5.27
2019-01-30T13:50:40.951Z,5.27
2019-01-30T13:53:10.599Z,6.03
2019-01-30T13:55:40.162Z,7.13
2019-01-30T13:58:09.806Z,6.17
2019-01-30T14:00:39.554Z,6.63
2019-01-30T14:03:09.177Z,6.87
2019-01-30T14:05:38.713Z,8.57
2019-01-30T14:08:08.900Z,7.00
2019-01-30T14:10:38.451Z,5.67
2019-01-30T14:13:08.073Z,6.37
2019-01-30T14:15:37.711Z,6.10
2019-01-30T14:18:07.355Z,6.43
2019-01-30T14:20:36.896Z,5.83
2019-01-30T14:23:06.576Z,5.97
2019-01-30T14:25:36.391Z,6.47
2019-01-30T14:28:06.051Z,6.47
2019-01-30T14:30:37.138Z,7.13
2019-01-30T14:33:06.945Z,6.77
2019-01-30T14:35:37.929Z,6.77
2019-01-30T14:38:07.570Z,6.87
2019-01-30T14:40:37.136Z,6.87
2019-01-30T14:43:06.704Z,7.87
2019-01-30T14:45:36.349Z,7.40
2019-01-30T14:48:06.176Z,7.50
2019-01-30T14:50:35.829Z,7.90
2019-01-30T14:53:05.469Z,7.33
2019-01-30T14:55:34.952Z,6.57
2019-01-30T14:58:06.579Z,8.13
2019-01-30T15:00:36.180Z,7.33
2019-01-30T15:03:05.994Z,7.43
2019-01-30T15:05:35.773Z,7.07
2019-01-30T15:08:05.507Z,7.40
2019-01-30T15:10:35.067Z,6.20
2019-01-30T15:13:05.942Z,7.53
2019-01-30T15:15:35.531Z,6.50
2019-01-30T15:18:05.550Z,6.27
2019-01-30T15:20:37.566Z,6.23
2019-01-30T15:23:08.230Z,7.30
2019-01-30T15:25:38.080Z,6.47
2019-01-30T15:28:07.719Z,7.70
2019-01-30T15:30:43.641Z,7.33
2019-01-30T15:33:13.452Z,7.03
2019-01-30T15:35:43.167Z,7.80
2019-01-30T15:38:12.936Z,7.90
2019-01-30T15:40:42.531Z,8.03
2019-01-30T15:43:12.071Z,7.33
2019-01-30T15:45:41.634Z,7.43
2019-01-30T15:48:11.331Z,9.97
2019-01-30T15:50:42.730Z,11.40
2019-01-30T15:53:15.043Z,9.40
2019-01-30T15:55:44.728Z,10.90
2019-01-30T15:58:14.592Z,8.10
2019-01-30T16:00:57.460Z,8.20
2019-01-30T16:03:27.526Z,6.60
2019-01-30T16:05:57.071Z,7.43
2019-01-30T16:08:26.584Z,7.50
2019-01-30T16:10:56.111Z,7.53
2019-01-30T16:13:25.717Z,7.40
2019-01-30T16:15:59.339Z,7.40
2019-01-30T16:18:28.952Z,7.10
2019-01-30T16:20:58.500Z,6.73
2019-01-30T16:23:28.217Z,6.80
2019-01-30T16:25:57.796Z,7.73
2019-01-30T16:28:27.348Z,8.40
2019-01-30T16:30:56.807Z,8.70
2019-01-30T16:33:26.320Z,9.10
2019-01-30T16:35:56.613Z,8.87
2019-01-30T16:38:26.197Z,9.00
2019-01-30T16:40:55.691Z,9.37
2019-01-30T16:43:25.402Z,9.87
2019-01-30T16:45:55.044Z,9.83
2019-01-30T16:48:24.672Z,9.97
2019-01-30T16:50:56.272Z,10.80
2019-01-30T16:53:25.972Z,9.60
2019-01-30T16:55:55.463Z,8.87
2019-01-30T16:58:25.122Z,8.90
2019-01-30T17:00:54.662Z,9.47
2019-01-30T17:03:27.189Z,12.33
2019-01-30T17:06:06.704Z,10.53
2019-01-30T17:08:28.180Z,11.57
2019-01-30T17:11:02.157Z,9.87
2019-01-30T17:13:31.691Z,10.83
2019-01-30T17:16:01.167Z,10.17
2019-01-30T17:18:30.656Z,11.93
2019-01-30T17:21:00.237Z,12.10
2019-01-30T17:23:29.763Z,11.47
2019-01-30T17:25:59.526Z,12.70
2019-01-30T17:28:28.980Z,11.93
2019-01-30T17:31:01.894Z,13.27
2019-01-30T17:33:31.380Z,12.83
2019-01-30T17:36:01.103Z,13.53
2019-01-30T17:38:30.597Z,13.90
2019-01-30T17:41:00.178Z,14.57
2019-01-30T17:43:29.712Z,13.47
2019-01-30T17:45:59.341Z,15.07
2019-01-30T17:48:28.935Z,14.70
2019-01-30T17:50:58.776Z,14.60
2019-01-30T17:53:28.347Z,13.70
2019-01-30T17:56:01.158Z,14.60
2019-01-30T17:58:35.039Z,14.40
2019-01-30T18:01:04.708Z,14.27
2019-01-30T18:03:34.279Z,16.20
2019-01-30T18:06:03.986Z,14.57
2019-01-30T18:08:33.618Z,14.43
2019-01-30T18:11:03.366Z,14.20
2019-01-30T18:13:32.982Z,14.60
2019-01-30T18:16:02.620Z,13.00
2019-01-30T18:18:32.225Z,13.27
2019-01-30T18:21:02.023Z,11.63
2019-01-30T18:23:33.007Z,12.97
2019-01-30T18:26:02.574Z,13.27
2019-01-30T18:28:32.160Z,13.63
2019-01-30T18:31:01.659Z,14.17
2019-01-30T18:33:31.177Z,11.77
2019-01-30T18:36:00.757Z,12.80
2019-01-30T18:38:30.429Z,13.37
2019-01-30T18:40:59.902Z,12.87
2019-01-30T18:43:29.406Z,13.07
2019-01-30T18:45:58.945Z,14.33
2019-01-30T18:48:28.532Z,12.23
2019-01-30T18:50:58.007Z,12.13
2019-01-30T18:53:27.488Z,12.90
2019-01-30T18:55:57.019Z,12.93
2019-01-30T18:58:26.550Z,13.57
2019-01-30T19:00:56.071Z,12.37
2019-01-30T19:03:25.742Z,13.30
2019-01-30T19:05:55.276Z,11.97
2019-01-30T19:08:24.827Z,12.17
2019-01-30T19:10:54.378Z,13.17
2019-01-30T19:13:24.020Z,13.93
2019-01-30T19:15:53.584Z,11.70
2019-01-30T19:18:23.247Z,11.40
2019-01-30T19:20:52.819Z,11.60
2019-01-30T19:23:22.367Z,12.90
2019-01-30T19:25:51.859Z,11.17
2019-01-30T19:28:21.393Z,10.83
2019-01-30T19:30:51.123Z,11.50
2019-01-30T19:33:20.602Z,9.37
2019-01-30T19:35:52.295Z,10.37
2019-01-30T19:38:21.516Z,10.00
2019-01-30T19:40:51.067Z,11.07
2019-01-30T19:43:20.551Z,9.57
2019-01-30T19:45:50.029Z,9.80
2019-01-30T19:48:19.657Z,9.03
2019-01-30T19:50:49.353Z,9.53
2019-01-30T19:53:18.837Z,9.90
2019-01-30T19:55:48.343Z,9.00
2019-01-30T19:58:17.831Z,9.80
2019-01-30T20:00:47.551Z,10.00
2019-01-30T20:03:20.190Z,9.80
2019-01-30T20:05:49.723Z,8.27
2019-01-30T20:08:19.423Z,8.93
2019-01-30T20:10:48.984Z,8.20
2019-01-30T20:13:18.576Z,8.90
2019-01-30T20:15:48.212Z,8.90
2019-01-30T20:18:17.947Z,9.97
2019-01-30T20:20:47.552Z,8.30
2019-01-30T20:23:17.157Z,8.07
2019-01-30T20:25:46.849Z,8.07
2019-01-30T20:28:16.320Z,6.87
2019-01-30T20:30:45.843Z,6.97
2019-01-30T20:33:15.419Z,7.07
2019-01-30T20:35:44.979Z,7.13
2019-01-30T20:38:14.462Z,6.57
2019-01-30T20:40:44.096Z,6.70
2019-01-30T20:43:13.696Z,7.27
2019-01-30T20:45:43.224Z,6.93
2019-01-30T20:48:12.867Z,6.57
2019-01-30T20:50:42.380Z,9.57
2019-01-30T20:53:12.024Z,6.50
2019-01-30T20:55:41.507Z,5.77
2019-01-30T20:58:11.095Z,5.77
2019-01-30T21:00:40.810Z,6.20
2019-01-30T21:03:10.398Z,5.20
2019-01-30T21:05:39.868Z,5.43
2019-01-30T21:08:09.437Z,5.17
2019-01-30T21:10:40.644Z,5.63
2019-01-30T21:13:10.367Z,5.20
2019-01-30T21:15:39.976Z,6.57
2019-01-30T21:18:09.902Z,6.07
2019-01-30T21:20:39.528Z,5.70
2019-01-30T21:23:09.095Z,6.07
2019-01-30T21:25:38.669Z,5.90
2019-01-30T21:28:08.255Z,6.60
2019-01-30T21:30:39.187Z,6.27
2019-01-30T21:33:08.655Z,6.60
2019-01-30T21:35:38.158Z,7.00
2019-01-30T21:38:07.959Z,6.83
2019-01-30T21:40:37.661Z,6.90
2019-01-30T21:43:07.292Z,7.87
2019-01-30T21:45:36.900Z,9.77
2019-01-30T21:48:06.833Z,9.17
2019-01-30T21:50:36.374Z,10.27
2019-01-30T21:53:06.175Z,9.37
2019-01-30T21:55:35.720Z,9.77
2019-01-30T21:58:05.366Z,9.07
2019-01-30T22:00:34.975Z,11.17
2019-01-30T22:03:04.578Z,13.47
2019-01-30T22:05:34.199Z,13.63
2019-01-30T22:08:03.842Z,9.40
2019-01-30T22:10:33.382Z,9.07
2019-01-30T22:13:02.965Z,8.93
2019-01-30T22:15:32.428Z,9.07
2019-01-30T22:18:01.900Z,7.20
2019-01-30T22:20:31.550Z,7.20
2019-01-30T22:23:01.103Z,7.97
2019-01-30T22:25:30.563Z,7.07
2019-01-30T22:28:00.140Z,8.07
2019-01-30T22:30:32.763Z,8.10
2019-01-30T22:33:02.336Z,6.80
2019-01-30T22:35:31.787Z,7.63
2019-01-30T22:38:11.516Z,6.60
2019-01-30T22:40:32.554Z,7.27
2019-01-30T22:43:02.138Z,7.57
2019-01-30T22:45:31.601Z,7.80
2019-01-30T22:48:01.072Z,7.63
2019-01-30T22:50:30.585Z,7.70
2019-01-30T22:53:00.039Z,6.63
2019-01-30T22:55:29.605Z,7.27
2019-01-30T22:57:59.135Z,7.87
2019-01-30T23:01:01.926Z,7.13
2019-01-30T23:03:44.667Z,6.63
2019-01-30T23:06:36.815Z,6.50
2019-01-30T23:09:58.871Z,6.73
2019-01-30T23:12:38.525Z,6.47
2019-01-30T23:15:24.188Z,6.50
2019-01-30T23:18:22.240Z,6.30
2019-01-30T23:20:56.742Z,6.83
2019-01-30T23:23:42.836Z,6.90
2019-01-30T23:26:20.063Z,6.57
2019-01-30T23:29:17.900Z,6.17
2019-01-30T23:32:17.452Z,6.03
2019-01-30T23:34:57.466Z,5.93
2019-01-30T23:37:46.473Z,5.80
2019-01-30T23:40:50.423Z,5.87
2019-01-30T23:43:50.012Z,5.60
2019-01-30T23:47:00.241Z,5.30
2019-01-30T23:49:55.366Z,5.20
2019-01-30T23:52:41.350Z,4.97
2019-01-30T23:55:24.322Z,5.23
2019-01-30T23:58:17.728Z,4.60
